Time;durP1;ratioP1;P1;durP2;ratioP2;P2;SDS_P1;SDS_P2;PMS_P1;PMS_P2;Temp;Humidity;BMP_temperature;BMP_pressure;BME280_temperature;BME280_humidity;BME280_pressure;Samples;Min_cycle;Max_cycle;Signal;HPM_P1;HPM_P2
2021/09/07 00:00:43;;;;;;;10.07;7.63;;;14.80;99.90;;;;;;5051864;28;20424;-72
2021/09/07 00:03:08;;;;;;;10.07;7.88;;;14.80;99.90;;;;;;5051424;28;20021;-72
2021/09/07 00:05:34;;;;;;;9.90;7.65;;;14.80;99.90;;;;;;5050727;28;20078;-72
2021/09/07 00:08:00;;;;;;;11.05;8.02;;;14.80;99.90;;;;;;5051487;28;20075;-72
2021/09/07 00:10:25;;;;;;;10.70;8.43;;;14.70;99.90;;;;;;5051495;28;20033;-72
2021/09/07 00:12:51;;;;;;;10.38;8.57;;;14.70;99.90;;;;;;5050556;28;20378;-71
2021/09/07 00:15:18;;;;;;;11.68;8.95;;;14.70;99.90;;;;;;5051247;28;20127;-72
2021/09/07 00:17:45;;;;;;;10.07;8.63;;;14.70;99.90;;;;;;5050863;28;20029;-72
2021/09/07 00:20:11;;;;;;;8.98;7.45;;;14.60;99.90;;;;;;5051518;28;20048;-71
2021/09/07 00:22:38;;;;;;;10.25;8.25;;;14.60;99.90;;;;;;5050593;28;20021;-71
2021/09/07 00:25:05;;;;;;;10.38;8.18;;;14.50;99.90;;;;;;5051767;28;20444;-71
2021/09/07 00:27:30;;;;;;;13.38;9.50;;;14.50;99.90;;;;;;5050892;28;20463;-71
2021/09/07 00:29:56;;;;;;;9.20;8.23;;;14.40;99.90;;;;;;5051494;28;20036;-71
2021/09/07 00:32:22;;;;;;;9.82;8.10;;;14.50;99.90;;;;;;5050479;28;20028;-71
2021/09/07 00:34:47;;;;;;;12.20;8.57;;;14.40;99.90;;;;;;5050357;28;20060;-71
2021/09/07 00:37:13;;;;;;;11.02;8.50;;;14.40;99.90;;;;;;5051047;28;20025;-71
2021/09/07 00:39:39;;;;;;;10.50;8.80;;;14.40;99.90;;;;;;5050065;28;20025;-71
2021/09/07 00:42:04;;;;;;;13.02;9.32;;;14.30;99.90;;;;;;5050754;28;20049;-72
2021/09/07 00:44:30;;;;;;;12.88;8.32;;;14.30;99.90;;;;;;5050172;28;20033;-71
2021/09/07 00:46:58;;;;;;;11.07;8.88;;;14.30;99.90;;;;;;5051113;28;20025;-71
2021/09/07 00:49:25;;;;;;;11.10;9.15;;;14.30;99.90;;;;;;5050933;28;20029;-71
2021/09/07 00:51:52;;;;;;;9.48;8.25;;;14.30;99.90;;;;;;5050438;28;20614;-71
2021/09/07 00:54:24;;;;;;;13.35;9.52;;;14.30;99.90;;;;;;5050621;28;20033;-71
2021/09/07 00:56:51;;;;;;;11.50;9.15;;;14.20;99.90;;;;;;5042351;28;20616;-71
2021/09/07 00:59:19;;;;;;;11.10;8.82;;;14.20;99.90;;;;;;5049367;28;20383;-71
2021/09/07 01:01:45;;;;;;;11.85;9.38;;;14.20;99.90;;;;;;5051479;28;20469;-71
2021/09/07 01:04:10;;;;;;;13.98;9.60;;;14.20;99.90;;;;;;5051116;28;20025;-71
2021/09/07 01:06:36;;;;;;;12.05;9.18;;;14.10;99.90;;;;;;5049855;28;20053;-71
2021/09/07 01:09:03;;;;;;;13.02;9.68;;;14.10;99.90;;;;;;5050898;28;20036;-71
2021/09/07 01:11:28;;;;;;;12.10;9.02;;;14.10;99.90;;;;;;5049124;28;20040;-71
2021/09/07 01:13:54;;;;;;;13.07;9.75;;;14.10;99.90;;;;;;5049977;28;20100;-71
2021/09/07 01:16:20;;;;;;;10.63;8.38;;;14.00;99.90;;;;;;5050880;28;20507;-71
2021/09/07 01:18:45;;;;;;;11.25;8.82;;;13.90;99.90;;;;;;5049847;28;20029;-71
2021/09/07 01:21:13;;;;;;;11.48;9.60;;;13.90;99.90;;;;;;5050940;28;20100;-71
2021/09/07 01:23:41;;;;;;;11.52;9.23;;;13.90;99.90;;;;;;5049224;28;20108;-71
2021/09/07 01:26:07;;;;;;;11.20;9.07;;;13.90;99.90;;;;;;5050672;28;20082;-71
2021/09/07 01:28:34;;;;;;;11.18;9.23;;;13.80;99.90;;;;;;5050189;28;20033;-71
2021/09/07 01:31:01;;;;;;;11.15;9.43;;;13.80;99.90;;;;;;5049685;28;20032;-71
2021/09/07 01:33:27;;;;;;;12.13;9.30;;;13.70;99.90;;;;;;5050394;28;20036;-71
2021/09/07 01:35:57;;;;;;;10.98;9.25;;;13.70;99.90;;;;;;5049579;28;20207;-71
2021/09/07 01:38:24;;;;;;;11.82;9.50;;;13.70;99.90;;;;;;5050553;28;20025;-72
2021/09/07 01:40:51;;;;;;;12.50;10.35;;;13.70;99.90;;;;;;5049393;28;20376;-71
2021/09/07 01:43:17;;;;;;;12.68;9.40;;;13.70;99.90;;;;;;5050679;28;20025;-71
2021/09/07 01:45:47;;;;;;;10.95;9.38;;;13.60;99.90;;;;;;5050708;28;20037;-71
2021/09/07 01:48:17;;;;;;;11.82;9.70;;;13.60;99.90;;;;;;5053820;28;20021;-71
2021/09/07 01:50:44;;;;;;;12.18;9.32;;;13.60;99.90;;;;;;5053308;28;20087;-71
2021/09/07 01:53:10;;;;;;;12.07;9.55;;;13.50;99.90;;;;;;5053299;28;20102;-71
2021/09/07 01:55:36;;;;;;;13.93;9.90;;;13.50;99.90;;;;;;5053464;28;20120;-71
2021/09/07 01:58:02;;;;;;;10.27;8.40;;;13.50;99.90;;;;;;5052709;28;20021;-71
2021/09/07 02:00:28;;;;;;;12.75;9.90;;;13.40;99.90;;;;;;5053258;28;20144;-71
2021/09/07 02:02:54;;;;;;;12.82;9.60;;;13.40;99.90;;;;;;5052974;28;20131;-71
2021/09/07 02:05:19;;;;;;;11.30;9.15;;;13.40;99.90;;;;;;5053968;28;20531;-71
2021/09/07 02:07:45;;;;;;;12.52;9.77;;;13.30;99.90;;;;;;5052763;28;20029;-71
2021/09/07 02:10:11;;;;;;;12.70;10.02;;;13.30;99.90;;;;;;5053586;28;20044;-71
2021/09/07 02:12:37;;;;;;;13.02;9.73;;;13.30;99.90;;;;;;5052489;28;20107;-71
2021/09/07 02:15:04;;;;;;;12.45;10.07;;;13.30;99.90;;;;;;5034074;28;20381;-71
2021/09/07 02:17:29;;;;;;;12.60;9.75;;;13.20;99.90;;;;;;5040238;28;20164;-71
2021/09/07 02:19:55;;;;;;;13.35;9.77;;;13.20;99.90;;;;;;5051042;28;20132;-70
2021/09/07 02:22:21;;;;;;;14.90;11.13;;;13.20;99.90;;;;;;5053608;28;20402;-71
2021/09/07 02:24:48;;;;;;;13.60;11.00;;;13.20;99.90;;;;;;5052151;28;20036;-71
2021/09/07 02:27:13;;;;;;;14.48;10.48;;;13.20;99.90;;;;;;5053078;28;20391;-71
2021/09/07 02:29:40;;;;;;;11.65;9.38;;;13.10;99.90;;;;;;5052636;28;20028;-71
2021/09/07 02:32:07;;;;;;;13.23;10.80;;;13.10;99.90;;;;;;5053123;28;20094;-71
2021/09/07 02:34:33;;;;;;;12.75;10.50;;;13.10;99.90;;;;;;5052309;28;20045;-71
2021/09/07 02:36:59;;;;;;;14.32;10.77;;;13.10;99.90;;;;;;5052257;28;20475;-71
2021/09/07 02:39:25;;;;;;;14.95;11.52;;;13.10;99.90;;;;;;5053563;28;20037;-71
2021/09/07 02:41:50;;;;;;;14.45;11.27;;;13.10;99.90;;;;;;5051755;28;20496;-71
2021/09/07 02:44:17;;;;;;;15.48;10.40;;;13.00;99.90;;;;;;5052267;28;20036;-71
2021/09/07 02:46:43;;;;;;;12.20;10.77;;;13.00;99.90;;;;;;5051993;28;20029;-71
2021/09/07 02:49:09;;;;;;;12.68;10.50;;;13.00;99.90;;;;;;5052771;28;20029;-71
2021/09/07 02:51:34;;;;;;;12.27;9.75;;;13.00;99.90;;;;;;5051720;28;20028;-71
2021/09/07 02:54:00;;;;;;;12.02;10.30;;;12.90;99.90;;;;;;5052808;28;20024;-71
2021/09/07 02:56:25;;;;;;;13.18;10.57;;;12.90;99.90;;;;;;5052140;28;20449;-71
2021/09/07 02:58:52;;;;;;;13.77;10.75;;;12.90;99.90;;;;;;5051288;28;20013;-71
2021/09/07 03:01:17;;;;;;;14.27;10.88;;;12.90;99.90;;;;;;5051570;28;20029;-71
2021/09/07 03:03:43;;;;;;;13.95;10.82;;;12.80;99.90;;;;;;5051980;28;20074;-71
2021/09/07 03:06:09;;;;;;;15.25;11.57;;;12.80;99.90;;;;;;5052319;28;20114;-72
2021/09/07 03:08:34;;;;;;;14.95;11.30;;;12.80;99.90;;;;;;5051314;28;20025;-71
2021/09/07 03:11:00;;;;;;;15.20;11.75;;;12.80;99.90;;;;;;5051404;28;20025;-71
2021/09/07 03:13:26;;;;;;;14.43;11.70;;;12.80;99.90;;;;;;5051909;28;20548;-71
2021/09/07 03:15:51;;;;;;;15.90;11.18;;;12.80;99.90;;;;;;5051940;28;20049;-71
2021/09/07 03:18:17;;;;;;;13.65;11.02;;;12.80;99.90;;;;;;5052417;28;20370;-71
2021/09/07 03:20:43;;;;;;;12.30;10.02;;;12.80;99.90;;;;;;5051586;28;20446;-71
2021/09/07 03:23:08;;;;;;;15.68;12.00;;;12.80;99.90;;;;;;5051769;28;20069;-71
2021/09/07 03:25:34;;;;;;;14.40;11.27;;;12.70;99.90;;;;;;5052157;28;20420;-71
2021/09/07 03:28:00;;;;;;;14.82;11.65;;;12.70;99.90;;;;;;5051650;28;20409;-71
2021/09/07 03:30:26;;;;;;;17.13;12.07;;;12.70;99.90;;;;;;5052102;28;20432;-71
2021/09/07 03:32:52;;;;;;;15.00;11.25;;;12.80;99.90;;;;;;5051390;28;20031;-71
2021/09/07 03:35:18;;;;;;;14.35;11.57;;;12.80;99.90;;;;;;5051672;28;20040;-71
2021/09/07 03:37:44;;;;;;;14.50;11.13;;;12.80;99.90;;;;;;5051007;28;20028;-71
2021/09/07 03:40:11;;;;;;;14.73;11.52;;;12.70;99.90;;;;;;5051830;28;20021;-71
2021/09/07 03:42:38;;;;;;;15.35;10.93;;;12.70;99.90;;;;;;5050866;28;20136;-71
2021/09/07 03:45:06;;;;;;;14.77;12.10;;;12.70;99.90;;;;;;5051640;28;20112;-71
2021/09/07 03:47:32;;;;;;;15.73;12.35;;;12.70;99.90;;;;;;5051903;28;20378;-71
2021/09/07 03:49:57;;;;;;;15.18;12.32;;;12.60;99.90;;;;;;5051152;28;20046;-70
2021/09/07 03:52:23;;;;;;;15.73;12.25;;;12.60;99.90;;;;;;5049375;28;20044;-71
2021/09/07 03:54:49;;;;;;;17.75;12.07;;;12.60;99.90;;;;;;5050692;28;20061;-71
2021/09/07 03:57:14;;;;;;;15.40;11.98;;;12.70;99.90;;;;;;5051926;28;20479;-71
2021/09/07 03:59:40;;;;;;;15.23;12.13;;;12.60;99.90;;;;;;5051029;28;20485;-71
2021/09/07 04:02:06;;;;;;;14.80;11.15;;;12.60;99.90;;;;;;5051938;28;20029;-71
2021/09/07 04:04:32;;;;;;;16.92;12.88;;;12.60;99.90;;;;;;5051269;28;20450;-71
2021/09/07 04:06:58;;;;;;;17.33;13.15;;;12.60;99.90;;;;;;5050908;28;20108;-71
2021/09/07 04:09:24;;;;;;;14.23;11.35;;;12.60;99.90;;;;;;5050750;28;20367;-71
2021/09/07 04:11:50;;;;;;;16.67;12.60;;;12.60;99.90;;;;;;5050902;28;20044;-71
2021/09/07 04:14:16;;;;;;;16.60;12.68;;;12.50;99.90;;;;;;5051709;28;20103;-71
2021/09/07 04:16:42;;;;;;;15.77;12.23;;;12.50;99.90;;;;;;5050721;28;20078;-71
2021/09/07 04:19:08;;;;;;;14.38;11.50;;;12.50;99.90;;;;;;5051297;28;20060;-71
2021/09/07 04:21:34;;;;;;;14.45;11.43;;;12.40;99.90;;;;;;5051585;28;20028;-71
2021/09/07 04:24:00;;;;;;;16.52;11.98;;;12.40;99.90;;;;;;5050569;28;20815;-71
2021/09/07 04:26:25;;;;;;;15.70;11.93;;;12.40;99.90;;;;;;5050765;28;20065;-71
2021/09/07 04:28:51;;;;;;;13.52;11.13;;;12.40;99.90;;;;;;5050535;28;20033;-71
2021/09/07 04:31:18;;;;;;;15.13;11.95;;;12.30;99.90;;;;;;5051513;28;20029;-71
2021/09/07 04:33:44;;;;;;;13.95;11.13;;;12.30;99.90;;;;;;5050223;28;20033;-71
2021/09/07 04:36:10;;;;;;;16.05;11.82;;;12.30;99.90;;;;;;5050967;28;20099;-71
2021/09/07 04:38:36;;;;;;;15.60;12.85;;;12.30;99.90;;;;;;5051300;28;20036;-74
2021/09/07 04:41:01;;;;;;;15.85;12.32;;;12.30;99.90;;;;;;5049857;28;20102;-71
2021/09/07 04:43:27;;;;;;;15.77;13.45;;;12.30;99.90;;;;;;5050983;28;20387;-72
2021/09/07 04:45:53;;;;;;;17.67;13.98;;;12.30;99.90;;;;;;5050314;28;20085;-75
2021/09/07 04:48:18;;;;;;;17.02;12.70;;;12.30;99.90;;;;;;5051169;28;20028;-74
2021/09/07 04:50:44;;;;;;;17.27;13.52;;;12.30;99.90;;;;;;5049395;28;20573;-71
2021/09/07 04:53:10;;;;;;;18.80;13.75;;;12.40;99.90;;;;;;5049984;28;20025;-71
2021/09/07 04:55:36;;;;;;;17.63;12.73;;;12.40;99.90;;;;;;5051084;28;20069;-71
2021/09/07 04:58:01;;;;;;;17.92;13.18;;;12.40;99.90;;;;;;5050044;28;20125;-71
2021/09/07 05:00:27;;;;;;;16.20;13.23;;;12.40;99.90;;;;;;5051220;28;20134;-71
2021/09/07 05:02:53;;;;;;;16.02;12.80;;;12.50;99.90;;;;;;5048735;28;20033;-71
2021/09/07 05:05:18;;;;;;;18.48;13.27;;;12.50;99.90;;;;;;5050724;28;20025;-71
2021/09/07 05:07:44;;;;;;;21.90;14.38;;;12.50;99.90;;;;;;5050012;28;20115;-70
2021/09/07 05:10:10;;;;;;;17.15;13.20;;;12.50;99.90;;;;;;5050717;28;20108;-71
2021/09/07 05:12:35;;;;;;;15.68;11.82;;;12.60;99.90;;;;;;5050246;28;20120;-71
2021/09/07 05:15:01;;;;;;;15.38;12.32;;;12.60;99.90;;;;;;5049573;28;20691;-71
2021/09/07 05:17:27;;;;;;;16.70;12.98;;;12.70;99.90;;;;;;5050740;28;20027;-71
2021/09/07 05:19:52;;;;;;;18.65;12.77;;;12.70;99.90;;;;;;5050022;28;20413;-72
2021/09/07 05:22:18;;;;;;;19.38;14.13;;;12.70;99.90;;;;;;5054172;28;20036;-71
2021/09/07 05:24:44;;;;;;;17.08;13.15;;;12.80;99.90;;;;;;5053998;28;20116;-71
2021/09/07 05:27:09;;;;;;;18.83;12.90;;;12.90;99.90;;;;;;5054363;28;20063;-71
2021/09/07 05:29:35;;;;;;;15.32;12.75;;;12.90;99.90;;;;;;5054119;28;20039;-71
2021/09/07 05:32:00;;;;;;;18.65;13.13;;;13.00;99.90;;;;;;5053802;28;20021;-71
2021/09/07 05:34:29;;;;;;;19.67;12.60;;;13.10;99.90;;;;;;5054459;28;20029;-71
2021/09/07 05:36:55;;;;;;;16.38;11.80;;;13.10;99.90;;;;;;5053732;28;20119;-71
2021/09/07 05:39:21;;;;;;;14.63;11.85;;;13.20;99.90;;;;;;5053831;28;20108;-71
2021/09/07 05:41:48;;;;;;;15.27;11.98;;;13.20;99.90;;;;;;5053541;28;20069;-71
2021/09/07 05:44:14;;;;;;;18.77;12.68;;;13.20;99.90;;;;;;5053911;28;20033;-71
2021/09/07 05:46:39;;;;;;;16.05;12.10;;;13.30;99.90;;;;;;5054403;28;20029;-71
2021/09/07 05:49:06;;;;;;;18.80;12.93;;;13.30;99.90;;;;;;5053749;28;20045;-71
2021/09/07 05:51:31;;;;;;;15.85;12.48;;;13.40;99.90;;;;;;5053766;28;20379;-71
2021/09/07 05:53:57;;;;;;;14.57;11.68;;;13.40;99.90;;;;;;5052614;28;20512;-71
2021/09/07 05:56:23;;;;;;;18.55;13.98;;;13.50;99.90;;;;;;5053686;28;20029;-71
2021/09/07 05:58:49;;;;;;;19.70;13.93;;;13.60;99.90;;;;;;5053013;28;20033;-71
2021/09/07 06:01:14;;;;;;;18.75;14.02;;;13.70;99.90;;;;;;5045099;28;20040;-71
2021/09/07 06:03:40;;;;;;;17.63;13.88;;;13.80;99.90;;;;;;5053120;28;20021;-71
2021/09/07 06:06:06;;;;;;;19.00;13.73;;;13.90;99.90;;;;;;5054413;28;20029;-72
2021/09/07 06:08:31;;;;;;;16.85;12.98;;;13.90;99.90;;;;;;5053418;28;20429;-72
2021/09/07 06:10:57;;;;;;;17.90;13.88;;;14.00;99.90;;;;;;5053079;28;20029;-71
2021/09/07 06:13:23;;;;;;;23.05;13.90;;;14.00;99.90;;;;;;5053406;28;20033;-69
2021/09/07 06:15:49;;;;;;;20.55;13.48;;;14.10;99.90;;;;;;5052455;28;20549;-71
2021/09/07 06:18:15;;;;;;;19.48;13.88;;;14.20;99.90;;;;;;5053932;28;20112;-70
2021/09/07 06:20:40;;;;;;;21.45;14.98;;;14.20;99.90;;;;;;5053891;28;20067;-71
2021/09/07 06:23:06;;;;;;;23.15;15.95;;;14.30;99.90;;;;;;5053156;28;20416;-71
2021/09/07 06:25:32;;;;;;;22.83;14.50;;;14.40;99.90;;;;;;5053459;28;20065;-72
2021/09/07 06:27:57;;;;;;;19.02;15.20;;;14.40;99.90;;;;;;5052454;28;20027;-71
2021/09/07 06:30:23;;;;;;;19.67;14.30;;;14.50;99.90;;;;;;5052964;28;20082;-71
2021/09/07 06:32:49;;;;;;;20.65;14.63;;;14.50;99.90;;;;;;5052192;28;20053;-71
2021/09/07 06:35:14;;;;;;;21.17;15.00;;;14.60;99.90;;;;;;5044225;28;20579;-70
2021/09/07 06:37:42;;;;;;;18.13;13.95;;;14.70;99.90;;;;;;5052119;28;20036;-71
2021/09/07 06:40:08;;;;;;;19.67;14.95;;;14.80;99.90;;;;;;5052088;28;20066;-71
2021/09/07 06:42:34;;;;;;;18.52;13.68;;;14.80;99.90;;;;;;5051943;28;20053;-72
2021/09/07 06:45:00;;;;;;;18.10;14.48;;;14.90;99.90;;;;;;5052123;28;20032;-73
2021/09/07 06:47:26;;;;;;;24.00;14.45;;;15.00;99.90;;;;;;5052849;28;20486;-71
2021/09/07 06:49:52;;;;;;;22.35;15.15;;;15.00;99.90;;;;;;5051891;28;20032;-71
2021/09/07 06:52:20;;;;;;;22.23;14.82;;;15.10;99.90;;;;;;5052866;28;20024;-71
2021/09/07 06:54:46;;;;;;;22.05;14.60;;;15.20;99.90;;;;;;5051776;28;20033;-71
2021/09/07 06:57:12;;;;;;;21.02;15.27;;;15.30;99.90;;;;;;5052752;28;20490;-73
2021/09/07 06:59:37;;;;;;;21.05;14.30;;;15.40;99.90;;;;;;5052776;28;20037;-72
2021/09/07 07:02:03;;;;;;;24.42;15.27;;;15.50;99.90;;;;;;5051648;28;20061;-72
2021/09/07 07:04:29;;;;;;;19.92;14.05;;;15.70;99.90;;;;;;5044751;28;20051;-71
2021/09/07 07:06:55;;;;;;;21.58;15.90;;;15.90;99.90;;;;;;5051113;28;20029;-72
2021/09/07 07:09:20;;;;;;;21.10;14.20;;;16.10;99.90;;;;;;5053750;28;20443;-72
2021/09/07 07:11:46;;;;;;;19.70;14.45;;;16.30;99.90;;;;;;5051569;28;20029;-72
2021/09/07 07:14:11;;;;;;;20.42;14.52;;;16.40;99.90;;;;;;5051563;28;20035;-72
2021/09/07 07:16:37;;;;;;;16.73;13.10;;;16.50;99.90;;;;;;5051444;28;20419;-71
2021/09/07 07:19:03;;;;;;;21.35;12.57;;;16.60;99.90;;;;;;5051748;28;20873;-71
2021/09/07 07:21:29;;;;;;;20.80;14.13;;;16.80;99.90;;;;;;5052445;28;20032;-72
2021/09/07 07:23:56;;;;;;;19.13;12.93;;;16.90;99.90;;;;;;5051794;28;20025;-71
2021/09/07 07:26:21;;;;;;;16.25;12.77;;;17.00;99.90;;;;;;5052161;28;20039;-72
2021/09/07 07:28:47;;;;;;;17.40;12.40;;;17.10;99.90;;;;;;5051512;28;20037;-72
2021/09/07 07:31:13;;;;;;;18.35;12.73;;;17.20;99.90;;;;;;5052114;28;20029;-72
2021/09/07 07:33:38;;;;;;;17.13;13.43;;;17.20;99.90;;;;;;5051690;28;20111;-71
2021/09/07 07:36:04;;;;;;;18.85;13.75;;;17.30;99.90;;;;;;5052827;28;20115;-71
2021/09/07 07:38:30;;;;;;;19.67;14.10;;;17.30;99.90;;;;;;5051398;28;20060;-71
2021/09/07 07:40:55;;;;;;;17.33;13.50;;;17.40;99.90;;;;;;5050486;28;20119;-72
2021/09/07 07:43:24;;;;;;;20.90;13.38;;;17.50;99.90;;;;;;5051376;28;20025;-72
2021/09/07 07:45:51;;;;;;;15.90;12.30;;;17.60;99.90;;;;;;5050598;28;20428;-72
2021/09/07 07:48:17;;;;;;;23.77;12.85;;;17.80;99.90;;;;;;5052054;28;20071;-71
2021/09/07 07:50:43;;;;;;;17.05;11.85;;;18.00;99.90;;;;;;5052422;28;20032;-72
2021/09/07 07:53:09;;;;;;;20.38;11.68;;;18.20;99.90;;;;;;5051309;28;20430;-72
2021/09/07 07:55:34;;;;;;;17.15;11.48;;;18.30;99.90;;;;;;5051291;28;20025;-72
2021/09/07 07:58:00;;;;;;;15.95;12.07;;;18.30;99.90;;;;;;5050312;28;20028;-72
2021/09/07 08:00:26;;;;;;;19.83;12.23;;;18.40;99.90;;;;;;5051222;28;20029;-71
2021/09/07 08:02:52;;;;;;;15.27;11.98;;;18.50;99.90;;;;;;5040494;28;20459;-71
2021/09/07 08:05:17;;;;;;;19.42;11.90;;;18.60;99.90;;;;;;5052771;28;20032;-72
2021/09/07 08:07:43;;;;;;;18.73;12.25;;;18.70;99.90;;;;;;5052620;28;20029;-71
2021/09/07 08:10:09;;;;;;;18.13;12.20;;;18.70;99.90;;;;;;5050030;28;20429;-71
2021/09/07 08:12:35;;;;;;;18.77;11.55;;;18.80;99.90;;;;;;5051037;28;20033;-71
2021/09/07 08:15:01;;;;;;;16.90;11.38;;;19.00;99.90;;;;;;5049422;28;20087;-71
2021/09/07 08:17:26;;;;;;;15.43;10.65;;;19.20;99.90;;;;;;5049550;28;20052;-71
2021/09/07 08:19:52;;;;;;;21.10;11.93;;;19.40;99.90;;;;;;5050103;28;20096;-71
2021/09/07 08:22:17;;;;;;;21.02;12.10;;;19.60;99.90;;;;;;5051304;28;20021;-72
2021/09/07 08:24:43;;;;;;;20.42;11.82;;;19.60;99.90;;;;;;5051391;28;20029;-71
2021/09/07 08:27:09;;;;;;;18.88;12.73;;;19.60;99.90;;;;;;5050803;28;20079;-71
2021/09/07 08:29:35;;;;;;;14.25;10.65;;;19.60;99.90;;;;;;5051533;28;20492;-71
2021/09/07 08:32:00;;;;;;;23.02;11.95;;;19.60;99.90;;;;;;5049730;28;20029;-72
2021/09/07 08:34:26;;;;;;;16.00;11.63;;;19.60;99.90;;;;;;5051432;28;20070;-71
2021/09/07 08:36:52;;;;;;;16.63;11.55;;;19.70;99.20;;;;;;5050443;28;20033;-71
2021/09/07 08:39:17;;;;;;;17.50;11.20;;;19.80;99.30;;;;;;5042967;28;20032;-71
2021/09/07 08:41:44;;;;;;;13.88;11.20;;;19.90;98.70;;;;;;5051057;28;20056;-71
2021/09/07 08:44:10;;;;;;;20.38;12.27;;;19.90;98.30;;;;;;5050430;28;20029;-71
2021/09/07 08:46:35;;;;;;;20.27;12.10;;;20.00;98.20;;;;;;5049687;28;20037;-71
2021/09/07 08:49:01;;;;;;;17.17;11.52;;;20.00;98.10;;;;;;5050212;28;20028;-71
2021/09/07 08:51:27;;;;;;;16.58;11.10;;;20.20;97.80;;;;;;5049644;28;20029;-72
2021/09/07 08:53:54;;;;;;;19.55;11.68;;;20.30;98.10;;;;;;5050282;28;20067;-72
2021/09/07 08:56:20;;;;;;;16.73;11.10;;;20.50;97.20;;;;;;5054789;28;20032;-71
2021/09/07 08:58:46;;;;;;;16.40;11.13;;;20.60;96.70;;;;;;5055390;28;20033;-72
2021/09/07 09:01:16;;;;;;;16.73;10.82;;;20.80;96.70;;;;;;5054408;28;20451;-71
2021/09/07 09:03:44;;;;;;;14.55;10.35;;;21.00;95.80;;;;;;5054839;28;20043;-72
2021/09/07 09:06:10;;;;;;;13.40;10.73;;;21.20;94.60;;;;;;5054211;28;20138;-71
2021/09/07 09:08:37;;;;;;;12.85;9.27;;;21.40;94.10;;;;;;5054510;28;20040;-72
2021/09/07 09:11:08;;;;;;;14.10;11.23;;;21.40;94.30;;;;;;5054095;28;20025;-71
2021/09/07 09:13:48;;;;;;;21.77;12.27;;;21.60;93.10;;;;;;5054409;28;20036;-72
2021/09/07 09:16:15;;;;;;;24.48;12.38;;;21.70;93.00;;;;;;5054672;28;20029;-71
2021/09/07 09:18:43;;;;;;;17.05;11.25;;;21.80;93.10;;;;;;5054452;28;20041;-71
2021/09/07 09:21:27;;;;;;;16.83;10.90;;;21.80;92.20;;;;;;5053621;28;20225;-72
2021/09/07 09:24:12;;;;;;;16.55;11.43;;;21.90;92.00;;;;;;5047244;28;20056;-71
2021/09/07 09:26:52;;;;;;;16.08;9.98;;;22.00;90.80;;;;;;5047493;28;20530;-72
2021/09/07 09:29:29;;;;;;;14.90;10.20;;;22.00;90.60;;;;;;5053172;28;20092;-72
2021/09/07 09:32:18;;;;;;;14.52;11.40;;;22.10;90.70;;;;;;5053277;28;20025;-71
2021/09/07 09:34:43;;;;;;;17.85;11.63;;;22.30;90.50;;;;;;5045810;28;20103;-71
2021/09/07 09:37:14;;;;;;;21.15;11.65;;;22.30;90.10;;;;;;5053360;28;20639;-72
2021/09/07 09:39:44;;;;;;;13.70;10.55;;;22.50;88.40;;;;;;5053937;28;20037;-72
2021/09/07 09:42:26;;;;;;;15.52;9.82;;;22.60;87.40;;;;;;5053006;28;20118;-72
2021/09/07 09:45:06;;;;;;;21.00;11.43;;;22.70;87.90;;;;;;5054296;28;20056;-72
2021/09/07 09:47:44;;;;;;;19.55;9.65;;;22.90;85.10;;;;;;5051180;28;20482;-72
2021/09/07 09:50:14;;;;;;;13.75;9.95;;;23.00;86.40;;;;;;5053909;28;20029;-71
2021/09/07 09:52:42;;;;;;;17.65;10.48;;;23.10;85.10;;;;;;5051926;28;20122;-71
2021/09/07 09:55:10;;;;;;;15.95;10.30;;;23.20;83.70;;;;;;5051984;28;20032;-71
2021/09/07 09:57:37;;;;;;;15.30;9.73;;;23.40;83.30;;;;;;5053903;28;20379;-71
2021/09/07 10:00:13;;;;;;;21.23;10.30;;;23.60;81.80;;;;;;5052595;28;20036;-71
2021/09/07 10:02:44;;;;;;;14.20;9.63;;;23.80;79.60;;;;;;5052756;28;20033;-71
2021/09/07 10:05:11;;;;;;;11.80;8.43;;;24.00;77.80;;;;;;5052431;28;20470;-71
2021/09/07 10:07:37;;;;;;;13.35;8.20;;;24.10;74.50;;;;;;5052759;28;20033;-71
2021/09/07 10:10:04;;;;;;;14.32;8.50;;;24.20;72.80;;;;;;5052547;28;20021;-71
2021/09/07 10:12:41;;;;;;;14.43;8.52;;;24.40;71.80;;;;;;5053473;28;20040;-71
2021/09/07 10:18:30;;;;;;;12.68;8.60;;;24.60;67.80;;;;;;5051783;28;20634;-71
2021/09/07 10:26:17;;;;;;;12.75;7.65;;;24.90;65.40;;;;;;5052447;28;20037;-71
2021/09/07 10:28:45;;;;;;;8.88;7.07;;;25.10;63.10;;;;;;5051268;28;20025;-71
2021/09/07 10:31:19;;;;;;;13.30;8.02;;;25.00;63.30;;;;;;5051873;28;20040;-71
2021/09/07 10:34:01;;;;;;;9.27;7.97;;;25.20;63.50;;;;;;5052900;28;20126;-72
2021/09/07 10:36:28;;;;;;;10.13;8.00;;;25.30;63.10;;;;;;5052194;28;20040;-72
2021/09/07 10:38:59;;;;;;;11.98;7.43;;;25.40;62.50;;;;;;5052370;28;20467;-70
2021/09/07 10:41:34;;;;;;;10.70;7.30;;;25.60;61.60;;;;;;5053022;28;20056;-72
2021/09/07 10:44:33;;;;;;;8.50;7.20;;;25.70;60.40;;;;;;5052733;28;20032;-72
2021/09/07 10:47:04;;;;;;;8.77;7.60;;;25.80;58.90;;;;;;5043502;28;20041;-72
2021/09/07 10:49:33;;;;;;;11.85;7.32;;;25.90;58.30;;;;;;5052542;28;20136;-72
2021/09/07 10:52:27;;;;;;;9.18;7.75;;;26.10;58.50;;;;;;5051897;28;20067;-72
2021/09/07 10:54:53;;;;;;;11.48;7.93;;;26.20;58.40;;;;;;5044316;28;20488;-71
2021/09/07 10:57:52;;;;;;;9.98;7.63;;;26.30;57.70;;;;;;5050543;28;20032;-71
2021/09/07 11:00:21;;;;;;;15.32;7.80;;;26.40;57.60;;;;;;5051478;28;20494;-71
2021/09/07 11:02:56;;;;;;;9.05;7.15;;;26.60;57.20;;;;;;5052374;28;20051;-71
2021/09/07 11:05:36;;;;;;;10.68;7.68;;;26.80;56.80;;;;;;5051739;28;20033;-72
2021/09/07 11:08:01;;;;;;;11.02;8.40;;;27.00;57.30;;;;;;5051703;28;20470;-71
2021/09/07 11:10:29;;;;;;;11.73;7.40;;;27.50;58.20;;;;;;5052246;28;20090;-71
2021/09/07 11:13:02;;;;;;;12.30;8.13;;;27.30;61.60;;;;;;5051791;28;20355;-72
2021/09/07 11:15:30;;;;;;;10.55;7.65;;;;;;;;;;5051572;28;20043;-72
2021/09/07 11:17:57;;;;;;;10.02;7.93;;;27.30;54.90;;;;;;5050183;28;20033;-71
2021/09/07 11:20:26;;;;;;;12.32;8.25;;;27.30;55.70;;;;;;5051768;28;20025;-72
2021/09/07 11:22:54;;;;;;;12.90;7.85;;;27.60;55.40;;;;;;5051732;28;20032;-71
2021/09/07 11:25:22;;;;;;;8.85;7.05;;;27.90;53.10;;;;;;5051544;28;20032;-70
2021/09/07 11:28:00;;;;;;;11.57;8.02;;;27.80;53.20;;;;;;5051672;28;20111;-70
2021/09/07 11:30:30;;;;;;;10.32;6.90;;;27.90;52.90;;;;;;5048040;28;20025;-70
2021/09/07 11:33:02;;;;;;;10.27;7.80;;;28.00;51.60;;;;;;5051052;28;20047;-70
2021/09/07 11:35:30;;;;;;;9.20;6.80;;;28.00;50.90;;;;;;5051017;28;20033;-68
2021/09/07 11:37:58;;;;;;;7.50;6.78;;;28.00;51.40;;;;;;5043227;28;20111;-70
2021/09/07 11:40:23;;;;;;;9.30;6.47;;;28.10;49.90;;;;;;5052919;28;20021;-69
2021/09/07 11:42:49;;;;;;;8.82;6.90;;;28.20;49.70;;;;;;5049940;28;20049;-69
2021/09/07 11:45:21;;;;;;;8.25;6.38;;;28.40;49.10;;;;;;5050575;28;20104;-70
2021/09/07 11:47:47;;;;;;;8.23;6.38;;;28.40;47.80;;;;;;5051752;28;20037;-70
2021/09/07 11:50:27;;;;;;;9.55;6.05;;;28.30;48.70;;;;;;5050513;28;20029;-70
2021/09/07 11:52:54;;;;;;;7.40;6.70;;;28.40;48.40;;;;;;5051071;28;20029;-70
2021/09/07 11:55:55;;;;;;;7.72;6.22;;;28.60;48.70;;;;;;5050246;28;20048;-70
2021/09/07 11:58:32;;;;;;;9.05;7.05;;;28.80;48.00;;;;;;5008337;28;20061;-70
2021/09/07 12:01:07;;;;;;;14.80;6.40;;;28.70;48.40;;;;;;5045164;28;20449;-70
2021/09/07 12:03:34;;;;;;;7.43;6.40;;;28.70;47.20;;;;;;5050304;28;20025;-70
2021/09/07 12:06:00;;;;;;;6.88;6.28;;;28.70;47.20;;;;;;5054961;28;20462;-70
2021/09/07 12:08:37;;;;;;;6.60;6.00;;;28.80;46.80;;;;;;5071305;28;20047;-70
2021/09/07 12:11:04;;;;;;;8.60;7.03;;;28.90;47.40;;;;;;5053836;28;20051;-69
2021/09/07 12:13:31;;;;;;;7.03;6.32;;;28.90;48.00;;;;;;5051372;28;20550;-71
2021/09/07 12:15:57;;;;;;;7.38;6.63;;;28.90;47.40;;;;;;5050407;28;20055;-70
2021/09/07 12:18:32;;;;;;;6.75;6.15;;;29.00;47.50;;;;;;5050787;28;20474;-70
2021/09/07 12:21:05;;;;;;;7.30;6.55;;;29.00;48.00;;;;;;5049982;28;20051;-70
2021/09/07 12:23:32;;;;;;;7.50;6.70;;;29.20;46.80;;;;;;5050456;28;20065;-70
2021/09/07 12:25:57;;;;;;;7.32;6.47;;;29.20;46.30;;;;;;5050085;28;20029;-70
2021/09/07 12:28:23;;;;;;;8.38;6.40;;;29.30;47.00;;;;;;5050712;28;20040;-70
2021/09/07 12:30:49;;;;;;;11.55;6.40;;;29.70;46.60;;;;;;5050073;28;20032;-70
2021/09/07 12:33:20;;;;;;;9.27;6.13;;;29.90;45.90;;;;;;5050034;28;20341;-70
2021/09/07 12:35:55;;;;;;;7.60;6.88;;;30.30;43.90;;;;;;5047208;28;20028;-69
2021/09/07 12:38:22;;;;;;;6.85;6.15;;;30.50;44.00;;;;;;5046328;28;20494;-70
2021/09/07 12:40:53;;;;;;;6.75;6.05;;;30.50;44.70;;;;;;5051080;28;20127;-70
2021/09/07 12:43:19;;;;;;;8.27;7.18;;;30.50;44.30;;;;;;5050232;28;20068;-70